Turquoise — V7KG7 — position and weather

sailwx.info

Track history (hours):
 
Tides and Currents Weather Stations Pressure Air Temp Water Temp Dewpoint Dewpoint Depression Visibility Wind Speed Wind Dir Waves Ship Positions

Turquoise

Last reported at 2017-Nov-18 16:07 UTC. Time now 2017-Nov-22 15:04 UTC.
Position N 35°59' W 005°14'.

Length 183 m; draft 12.4 m.

Type: Tanker. MMSI: 538006160.

Date/timePositionNaut miles runAvg speedWind from/ knotsBaromVisibWave heightAir tempDewpointWater temp
2017-Nov-18 16:07N 35°59' W 005°14'214.3
2017-Nov-18 16:00N 35°59' W 005°16'713.9
2017-Nov-18 15:30N 35°58' W 005°24'18112.5
2017-Nov-18 01:00N 36°16' W 009°07'713.0
2017-Nov-18 00:30N 36°18' W 009°14'713.2
2017-Nov-17 23:59N 36°21' W 009°22'613.1
2017-Nov-17 23:30N 36°23' W 009°29'612.8
2017-Nov-17 23:00N 36°26' W 009°36'713.4
2017-Nov-17 22:29N 36°29' W 009°44'613.4
2017-Nov-17 22:00N 36°32' W 009°51'1013.4
2017-Nov-17 21:14N 36°36' W 010°03'313.5
2017-Nov-17 21:00N 36°38' W 010°06'813.5
2017-Nov-17 20:25N 36°41' W 010°15'613.5
2017-Nov-17 20:00N 36°43' W 010°22'713.3
2017-Nov-17 19:30N 36°46' W 010°29'913.5
2017-Nov-17 18:50N 36°50' W 010°40'513.7
2017-Nov-17 18:29N 36°51' W 010°45'713.4
2017-Nov-17 18:00N 36°54' W 010°53'713.3
2017-Nov-17 17:31N 36°57' W 011°00'713.3
2017-Nov-17 17:00N 36°59' W 011°08'713.0
2017-Nov-17 16:28N 37°01' W 011°16'612.7
2017-Nov-17 16:01N 37°03' W 011°23'813.0
2017-Nov-17 15:22N 37°06' W 011°33'613.1
2017-Nov-17 14:54N 37°09' W 011°40'513.0
2017-Nov-17 14:30N 37°11' W 011°46'612.9
2017-Nov-17 14:00N 37°13' W 011°53'  
Track history (hours):
 
Tides and Currents Weather Stations Pressure Air Temp Water Temp Dewpoint Dewpoint Depression Visibility Wind Speed Wind Dir Waves Ship Positions

Turquoise

Last reported at 2017-Nov-18 16:07 UTC. Time now 2017-Nov-22 15:04 UTC.
Position N 35°59' W 005°14'.

Length 183 m; draft 12.4 m.

Type: Tanker. MMSI: 538006160.

Date/timePositionNaut miles runAvg speedWind from/ knotsBaromVisibWave heightAir tempDewpointWater temp
2017-Nov-18 16:07N 35°59' W 005°14'214.3
2017-Nov-18 16:00N 35°59' W 005°16'713.9
2017-Nov-18 15:30N 35°58' W 005°24'18112.5
2017-Nov-18 01:00N 36°16' W 009°07'713.0
2017-Nov-18 00:30N 36°18' W 009°14'713.2
2017-Nov-17 23:59N 36°21' W 009°22'613.1
2017-Nov-17 23:30N 36°23' W 009°29'612.8
2017-Nov-17 23:00N 36°26' W 009°36'713.4
2017-Nov-17 22:29N 36°29' W 009°44'613.4
2017-Nov-17 22:00N 36°32' W 009°51'1013.4
2017-Nov-17 21:14N 36°36' W 010°03'313.5
2017-Nov-17 21:00N 36°38' W 010°06'813.5
2017-Nov-17 20:25N 36°41' W 010°15'613.5
2017-Nov-17 20:00N 36°43' W 010°22'713.3
2017-Nov-17 19:30N 36°46' W 010°29'913.5
2017-Nov-17 18:50N 36°50' W 010°40'513.7
2017-Nov-17 18:29N 36°51' W 010°45'713.4
2017-Nov-17 18:00N 36°54' W 010°53'713.3
2017-Nov-17 17:31N 36°57' W 011°00'713.3
2017-Nov-17 17:00N 36°59' W 011°08'713.0
2017-Nov-17 16:28N 37°01' W 011°16'612.7
2017-Nov-17 16:01N 37°03' W 011°23'813.0
2017-Nov-17 15:22N 37°06' W 011°33'613.1
2017-Nov-17 14:54N 37°09' W 011°40'513.0
2017-Nov-17 14:30N 37°11' W 011°46'612.9
2017-Nov-17 14:00N 37°13' W 011°53'  

Dump ship's entire track history